Hlavní strana
METAR-TAF:

METAR-TAF

Letiště :

Ronneby, Švédsko

zeměpisná šířka: 56-16N, zeměpisná délka: 015-17E, výška: 58 m

Aktuální stav počasí

Zpráva byla vytvořena před 34 minutami, v 05:16 UTC
Východoseverovýchodní vítr 9 kt
Teplota 2°C
Vlhkost vzduchu 100%
Tlak 1028 hPa
Viditelnost 10 km a více
Polojasno ve výšce 800 ft
Oblačno až skoro zataženo ve výšce 2000 ft
slabé dešťové přeháňky

METAR: ESDF 210516Z 06009KT 9999 -SHRA SCT008 BKN020 02/02 Q1028

Čas: 06:50 (05:50 UTC)

Předpověď počasí

Zpráva byla vytvořena před 20 minutami, v 05:30 UTC
Předpověď platná od 21 v 06 UTC do 21 v 15 UTC
Východní vítr 11 kt
Viditelnost 10 km a více
Skoro jasno ve výšce 700 ft
Polojasno ve výšce 1200 ft
Oblačno až skoro zataženo ve výšce 3500 ft
Dočasný
od 21 v 06 UTC do 21 v 15 UTC
Viditelnost: 7000 m
Oblačno až skoro zataženo ve výšce 700 ft
dešťové přeháňky, sníh

TAF: ESDF 210530Z 2106/2115 08011KT 9999 FEW007 SCT012 BKN035 TEMPO 2106/2115 7000 SHRASN BKN007 RMK MIL

Stav a předpovědi počasí z více než 4 000 letišť (zprávy METAR a TAF).

Červené a žluté tečky na mapě představují dostupné meteorologické stanice.

Když kurzor umístíte na tečku, zobrazí se název stanice.

Pak kliknutím zobrazíte stav a předpověď počasí.

Chcete-li změnit mapu, kliknutím na zelené tlačítko se znaménkem +mapu přiblížíte, kliknutím na zelené tlačítko se znaménkem – mapu oddálíte a kliknutím na zelené šipky přejdete na sousední mapy.


METAR-TAF: